Time;durP1;ratioP1;P1;durP2;ratioP2;P2;SDS_P1;SDS_P2;PMS_P1;PMS_P2;Temp;Humidity;BMP_temperature;BMP_pressure;BME280_temperature;BME280_humidity;BME280_pressure;Samples;Min_cycle;Max_cycle;Signal;HPM_P1;HPM_P2
2022/08/20 00:00:28;;;;;;;;;;;19.60;99.90;;;;;;5054975;28;20275;-65
2022/08/20 00:02:55;;;;;;;;;;;19.60;99.90;;;;;;5054911;28;19909;-64
2022/08/20 00:05:23;;;;;;;;;;;19.70;99.90;;;;;;5054881;28;20283;-64
2022/08/20 00:07:48;;;;;;;;;;;19.70;99.90;;;;;;5054858;28;20281;-64
2022/08/20 00:10:14;;;;;;;;;;;19.70;99.90;;;;;;5054786;28;19909;-64
2022/08/20 00:12:47;;;;;;;;;;;19.70;99.90;;;;;;5054527;28;19915;-64
2022/08/20 00:15:13;;;;;;;;;;;19.70;99.90;;;;;;5054440;28;20405;-64
2022/08/20 00:17:39;;;;;;;;;;;19.60;99.90;;;;;;5054363;28;19920;-64
2022/08/20 00:20:07;;;;;;;;;;;19.60;99.90;;;;;;5054598;28;19975;-64
2022/08/20 00:22:33;;;;;;;;;;;19.60;99.90;;;;;;5036448;28;20016;-64
2022/08/20 00:24:59;;;;;;;;;;;19.60;99.90;;;;;;5036489;28;19956;-64
2022/08/20 00:27:24;;;;;;;;;;;19.60;99.90;;;;;;5036407;28;19908;-66
2022/08/20 00:29:50;;;;;;;;;;;19.50;99.90;;;;;;5054244;28;20386;-65
2022/08/20 00:32:15;;;;;;;;;;;19.50;99.90;;;;;;5054380;28;19970;-65
2022/08/20 00:34:41;;;;;;;;;;;19.50;99.90;;;;;;5036242;28;19908;-64
2022/08/20 00:37:07;;;;;;;;;;;19.50;99.90;;;;;;5036164;28;20260;-64
2022/08/20 00:39:33;;;;;;;;;;;19.50;99.90;;;;;;5053970;28;19916;-64
2022/08/20 00:41:59;;;;;;;;;;;19.40;99.90;;;;;;5054238;28;19934;-65
2022/08/20 00:44:24;;;;;;;;;;;19.40;99.90;;;;;;5053936;28;19909;-65
2022/08/20 00:46:51;;;;;;;;;;;19.40;99.90;;;;;;5053773;28;19916;-65
2022/08/20 00:49:19;;;;;;;;;;;19.40;99.90;;;;;;5054118;28;19909;-65
2022/08/20 00:51:46;;;;;;;;;;;19.40;99.90;;;;;;5054084;28;19970;-65
2022/08/20 00:54:15;;;;;;;;;;;19.50;99.90;;;;;;5053769;28;19913;-65
2022/08/20 00:56:42;;;;;;;;;;;19.50;99.90;;;;;;5053969;28;20382;-64
2022/08/20 00:59:11;;;;;;;;;;;19.50;99.90;;;;;;5054043;28;20402;-65
2022/08/20 01:01:38;;;;;;;;;;;19.50;99.90;;;;;;5053943;28;20378;-64
2022/08/20 01:04:04;;;;;;;;;;;19.50;99.90;;;;;;5053645;28;20359;-64
2022/08/20 01:06:29;;;;;;;;;;;19.50;99.90;;;;;;5053913;28;19916;-64
2022/08/20 01:08:55;;;;;;;;;;;19.50;99.90;;;;;;5053863;28;19909;-65
2022/08/20 01:11:28;;;;;;;;;;;19.50;99.90;;;;;;5053603;28;19909;-65
2022/08/20 01:13:56;;;;;;;;;;;19.60;99.90;;;;;;5053535;28;19909;-64
2022/08/20 01:16:25;;;;;;;;;;;19.60;99.90;;;;;;5053243;28;19971;-64
2022/08/20 01:18:51;;;;;;;;;;;19.60;99.90;;;;;;5053775;28;19998;-64
2022/08/20 01:21:23;;;;;;;;;;;19.60;99.90;;;;;;5053676;28;20355;-65
2022/08/20 01:23:53;;;;;;;;;;;19.60;99.90;;;;;;5053678;28;19916;-64
2022/08/20 01:26:21;;;;;;;;;;;19.60;99.90;;;;;;5053399;28;19909;-64
2022/08/20 01:28:51;;;;;;;;;;;19.60;99.90;;;;;;5053672;28;20276;-64
2022/08/20 01:31:18;;;;;;;;;;;19.60;99.90;;;;;;5053625;28;20282;-65
2022/08/20 01:33:44;;;;;;;;;;;19.60;99.90;;;;;;5053247;28;19920;-64
2022/08/20 01:36:10;;;;;;;;;;;19.60;99.90;;;;;;5053256;28;19913;-64
2022/08/20 01:38:36;;;;;;;;;;;19.60;99.90;;;;;;5053291;28;19909;-64
2022/08/20 01:41:08;;;;;;;;;;;19.50;99.90;;;;;;5053283;28;19908;-64
2022/08/20 01:43:33;;;;;;;;;;;19.50;99.90;;;;;;5053530;28;20287;-64
2022/08/20 01:46:00;;;;;;;;;;;19.50;99.90;;;;;;5053257;28;19908;-65
2022/08/20 01:48:25;;;;;;;;;;;19.50;99.90;;;;;;5053464;28;20389;-65
2022/08/20 01:51:08;;;;;;;;;;;19.40;99.90;;;;;;5053265;28;19908;-64
2022/08/20 01:53:36;;;;;;;;;;;19.50;99.90;;;;;;5053435;28;19962;-64
2022/08/20 01:56:03;;;;;;;;;;;19.50;99.90;;;;;;5053331;28;19917;-65
2022/08/20 01:58:28;;;;;;;;;;;19.50;99.90;;;;;;5054735;28;19948;-64
2022/08/20 02:00:55;;;;;;;;;;;19.50;99.90;;;;;;5039120;28;20390;-64
2022/08/20 02:03:21;;;;;;;;;;;19.50;99.90;;;;;;5057258;28;19930;-65
2022/08/20 02:05:46;;;;;;;;;;;19.40;99.90;;;;;;5039180;28;19908;-65
2022/08/20 02:08:12;;;;;;;;;;;19.50;99.90;;;;;;5057141;28;19912;-64
2022/08/20 02:10:37;;;;;;;;;;;19.50;99.90;;;;;;5057082;28;19908;-64
2022/08/20 02:13:04;;;;;;;;;;;19.40;99.90;;;;;;5056805;28;19915;-64
2022/08/20 02:15:30;;;;;;;;;;;19.40;99.90;;;;;;5056656;28;20291;-64
2022/08/20 02:17:56;;;;;;;;;;;19.50;99.90;;;;;;5056684;28;19909;-64
2022/08/20 02:20:25;;;;;;;;;;;19.40;99.90;;;;;;5056955;28;19991;-64
2022/08/20 02:22:52;;;;;;;;;;;19.30;99.90;;;;;;5056868;28;19916;-65
2022/08/20 02:25:20;;;;;;;;;;;19.20;99.90;;;;;;5056809;28;19909;-64
2022/08/20 02:27:47;;;;;;;;;;;19.20;99.90;;;;;;5056486;28;19909;-65
2022/08/20 02:30:14;;;;;;;;;;;19.10;99.90;;;;;;5056734;28;19931;-65
2022/08/20 02:32:40;;;;;;;;;;;19.00;99.90;;;;;;5056668;28;19995;-65
2022/08/20 02:35:07;;;;;;;;;;;19.00;99.90;;;;;;5056385;28;19944;-65
2022/08/20 02:37:34;;;;;;;;;;;18.90;99.90;;;;;;5056519;28;19913;-65
2022/08/20 02:40:00;;;;;;;;;;;18.80;99.90;;;;;;5056510;28;19992;-65
2022/08/20 02:42:26;;;;;;;;;;;18.70;99.90;;;;;;5056513;28;20282;-65
2022/08/20 02:44:52;;;;;;;;;;;18.70;99.90;;;;;;5056454;28;19909;-65
2022/08/20 02:47:18;;;;;;;;;;;18.70;99.90;;;;;;5056394;28;19913;-65
2022/08/20 02:49:43;;;;;;;;;;;18.70;99.90;;;;;;5056067;28;20424;-65
2022/08/20 02:52:09;;;;;;;;;;;18.60;99.90;;;;;;5056076;28;20008;-64
2022/08/20 02:54:34;;;;;;;;;;;18.60;99.90;;;;;;5038136;28;20287;-64
2022/08/20 02:57:02;;;;;;;;;;;18.60;99.90;;;;;;5056111;28;19913;-64
2022/08/20 02:59:27;;;;;;;;;;;18.70;99.90;;;;;;5056185;28;19916;-65
2022/08/20 03:01:53;;;;;;;;;;;18.60;99.90;;;;;;5055900;28;20376;-65
2022/08/20 03:04:18;;;;;;;;;;;18.60;99.90;;;;;;5055845;28;19916;-65
2022/08/20 03:06:44;;;;;;;;;;;18.50;99.90;;;;;;5055701;28;19909;-65
2022/08/20 03:09:10;;;;;;;;;;;18.50;99.90;;;;;;5055385;28;19909;-65
2022/08/20 03:11:38;;;;;;;;;;;18.50;99.90;;;;;;5055977;28;20372;-65
2022/08/20 03:14:05;;;;;;;;;;;18.50;99.90;;;;;;5038460;28;20385;-65
2022/08/20 03:16:30;;;;;;;;;;;18.50;99.90;;;;;;5055394;28;19921;-65
2022/08/20 03:18:56;;;;;;;;;;;18.50;99.90;;;;;;5055531;28;19916;-65
2022/08/20 03:21:21;;;;;;;;;;;18.50;99.90;;;;;;5055915;28;19955;-66
2022/08/20 03:23:47;;;;;;;;;;;18.50;99.90;;;;;;5055462;28;20006;-66
2022/08/20 03:26:13;;;;;;;;;;;18.50;99.90;;;;;;5055685;28;19958;-65
2022/08/20 03:28:39;;;;;;;;;;;18.50;99.90;;;;;;5055646;28;19992;-65
2022/08/20 03:31:04;;;;;;;;;;;18.50;99.90;;;;;;5055304;28;20371;-65
2022/08/20 03:33:30;;;;;;;;;;;18.50;99.90;;;;;;5055240;28;19909;-65
2022/08/20 03:35:56;;;;;;;;;;;18.50;99.90;;;;;;5055384;28;20015;-65
2022/08/20 03:38:22;;;;;;;;;;;18.50;99.90;;;;;;5055534;28;19916;-65
2022/08/20 03:40:48;;;;;;;;;;;18.50;99.90;;;;;;5055056;28;19959;-66
2022/08/20 03:43:14;;;;;;;;;;;18.40;99.90;;;;;;5055075;28;19917;-65
2022/08/20 03:45:42;;;;;;;;;;;18.50;99.90;;;;;;5055323;28;19966;-65
2022/08/20 03:48:09;;;;;;;;;;;18.50;99.90;;;;;;5055231;28;20360;-65
2022/08/20 03:50:35;;;;;;;;;;;18.40;99.90;;;;;;5055144;28;20314;-66
2022/08/20 03:53:01;;;;;;;;;;;18.50;99.90;;;;;;5037111;28;19909;-65
2022/08/20 03:55:28;;;;;;;;;;;18.50;99.90;;;;;;5055109;28;19915;-65
2022/08/20 03:57:55;;;;;;;;;;;18.50;99.90;;;;;;5055093;28;19921;-65
2022/08/20 04:00:22;;;;;;;;;;;18.50;99.90;;;;;;5055048;28;20252;-65
2022/08/20 04:02:48;;;;;;;;;;;18.50;99.90;;;;;;5054735;28;19915;-65
2022/08/20 04:05:13;;;;;;;;;;;18.50;99.90;;;;;;5054938;28;20003;-65
2022/08/20 04:07:39;;;;;;;;;;;18.50;99.90;;;;;;5054913;28;19908;-65
2022/08/20 04:10:08;;;;;;;;;;;18.50;99.90;;;;;;5054841;28;19999;-65
2022/08/20 04:12:33;;;;;;;;;;;18.50;99.90;;;;;;5054803;28;19963;-66
2022/08/20 04:14:59;;;;;;;;;;;18.60;99.90;;;;;;5054294;28;19944;-65
2022/08/20 04:17:25;;;;;;;;;;;18.60;99.90;;;;;;5054325;28;19928;-65
2022/08/20 04:19:50;;;;;;;;;;;18.60;99.90;;;;;;5054639;28;19909;-65
2022/08/20 04:22:16;;;;;;;;;;;18.70;99.90;;;;;;5053867;28;19915;-66
2022/08/20 04:24:42;;;;;;;;;;;18.60;99.90;;;;;;5054576;28;19909;-66
2022/08/20 04:27:08;;;;;;;;;;;18.70;99.90;;;;;;5054540;28;19945;-66
2022/08/20 04:29:34;;;;;;;;;;;18.60;99.90;;;;;;5036469;28;19909;-65
2022/08/20 04:32:01;;;;;;;;;;;18.70;99.90;;;;;;5054104;28;19909;-65
2022/08/20 04:34:28;;;;;;;;;;;18.70;99.90;;;;;;5054391;28;20366;-65
2022/08/20 04:36:53;;;;;;;;;;;18.70;99.90;;;;;;5053967;28;19934;-65
2022/08/20 04:39:19;;;;;;;;;;;18.70;99.90;;;;;;5054031;28;19908;-65
2022/08/20 04:41:44;;;;;;;;;;;18.70;99.90;;;;;;5054239;28;20054;-65
2022/08/20 04:44:10;;;;;;;;;;;18.70;99.90;;;;;;5053974;28;19978;-65
2022/08/20 04:46:36;;;;;;;;;;;18.80;99.90;;;;;;5053877;28;19915;-65
2022/08/20 04:49:03;;;;;;;;;;;18.80;99.90;;;;;;5053738;28;20003;-65
2022/08/20 04:51:28;;;;;;;;;;;18.80;99.90;;;;;;5054118;28;20359;-65
2022/08/20 04:53:55;;;;;;;;;;;18.80;99.90;;;;;;5053937;28;19919;-65
2022/08/20 04:56:22;;;;;;;;;;;18.80;99.90;;;;;;5054004;28;20317;-65
2022/08/20 04:58:48;;;;;;;;;;;18.80;99.90;;;;;;5053988;28;20283;-65
2022/08/20 05:01:14;;;;;;;;;;;18.80;99.90;;;;;;5053705;28;19913;-65
2022/08/20 05:03:40;;;;;;;;;;;18.80;99.90;;;;;;5053704;28;19909;-65
2022/08/20 05:06:06;;;;;;;;;;;18.90;99.90;;;;;;5053900;28;19961;-65
2022/08/20 05:08:33;;;;;;;;;;;18.90;99.90;;;;;;5053606;28;19916;-65
2022/08/20 05:10:59;;;;;;;;;;;18.90;99.90;;;;;;5053871;28;19912;-66
2022/08/20 05:13:25;;;;;;;;;;;18.90;99.90;;;;;;5053817;28;20062;-65
2022/08/20 05:15:50;;;;;;;;;;;18.90;99.90;;;;;;5053419;28;19924;-65
2022/08/20 05:18:18;;;;;;;;;;;18.90;99.90;;;;;;5035680;28;19909;-65
2022/08/20 05:20:44;;;;;;;;;;;18.90;99.90;;;;;;5053764;28;19916;-65
2022/08/20 05:23:10;;;;;;;;;;;18.90;99.90;;;;;;5053463;28;19909;-65
2022/08/20 05:25:37;;;;;;;;;;;18.90;99.90;;;;;;5053671;28;19944;-65
2022/08/20 05:28:06;;;;;;;;;;;19.00;99.90;;;;;;5053423;28;19917;-65
2022/08/20 05:30:32;;;;;;;;;;;19.00;99.90;;;;;;5053674;28;19909;-65
2022/08/20 05:32:59;;;;;;;;;;;19.00;99.90;;;;;;5055912;28;20367;-65
2022/08/20 05:35:24;;;;;;;;;;;19.00;99.90;;;;;;5057852;28;20379;-65
2022/08/20 05:37:50;;;;;;;;;;;19.00;99.90;;;;;;5057672;28;19913;-65
2022/08/20 05:40:15;;;;;;;;;;;19.00;99.90;;;;;;5057635;28;19909;-65
2022/08/20 05:42:41;;;;;;;;;;;19.00;99.90;;;;;;5057620;28;19995;-65
2022/08/20 05:45:07;;;;;;;;;;;19.10;99.90;;;;;;5057590;28;19916;-65
2022/08/20 05:47:33;;;;;;;;;;;19.10;99.90;;;;;;5057572;28;19909;-65
2022/08/20 05:50:00;;;;;;;;;;;19.20;99.90;;;;;;5057154;28;19919;-65
2022/08/20 05:52:28;;;;;;;;;;;19.30;99.90;;;;;;5057478;28;19909;-65
2022/08/20 05:54:54;;;;;;;;;;;19.40;99.90;;;;;;5057471;28;20287;-65
2022/08/20 05:57:20;;;;;;;;;;;19.50;99.90;;;;;;5057279;28;20374;-65
2022/08/20 05:59:45;;;;;;;;;;;19.50;99.90;;;;;;5057313;28;20077;-65
2022/08/20 06:04:56;;;;;;;;;;;19.40;99.90;;;;;;5056769;28;19995;-65
2022/08/20 06:07:22;;;;;;;;;;;19.40;99.90;;;;;;5056956;28;19948;-65
2022/08/20 06:09:48;;;;;;;;;;;19.40;99.90;;;;;;5056900;28;19913;-65
2022/08/20 06:12:13;;;;;;;;;;;19.40;99.90;;;;;;5056792;28;19963;-65
2022/08/20 06:14:39;;;;;;;;;;;19.30;99.90;;;;;;5056982;28;19909;-65
2022/08/20 06:17:06;;;;;;;;;;;19.40;99.90;;;;;;5056500;28;19921;-65
2022/08/20 06:19:32;;;;;;;;;;;19.40;99.90;;;;;;5056913;28;20363;-65
2022/08/20 06:21:58;;;;;;;;;;;19.40;99.90;;;;;;5056731;28;19916;-65
2022/08/20 06:24:24;;;;;;;;;;;19.50;99.90;;;;;;5056805;28;19913;-65
2022/08/20 06:26:57;;;;;;;;;;;19.40;99.90;;;;;;5056810;28;19932;-65
2022/08/20 06:29:22;;;;;;;;;;;19.50;99.90;;;;;;5056817;28;20326;-65
2022/08/20 06:31:48;;;;;;;;;;;19.60;99.90;;;;;;5056419;28;19909;-65
2022/08/20 06:34:13;;;;;;;;;;;19.60;99.90;;;;;;5056717;28;19952;-65
2022/08/20 06:36:39;;;;;;;;;;;19.70;99.90;;;;;;5056549;28;19913;-65
2022/08/20 06:39:04;;;;;;;;;;;19.80;99.90;;;;;;5056592;28;19916;-65
2022/08/20 06:41:31;;;;;;;;;;;19.90;99.90;;;;;;5056293;28;19909;-65
2022/08/20 06:43:57;;;;;;;;;;;19.90;99.90;;;;;;5055458;28;19916;-65
2022/08/20 06:46:22;;;;;;;;;;;19.90;99.90;;;;;;5056460;28;19909;-65
2022/08/20 06:48:49;;;;;;;;;;;20.10;99.90;;;;;;5038636;28;19916;-65
2022/08/20 06:51:14;;;;;;;;;;;20.20;99.90;;;;;;5056322;28;20370;-65
2022/08/20 06:53:40;;;;;;;;;;;20.50;99.90;;;;;;5056338;28;19959;-65
2022/08/20 06:56:05;;;;;;;;;;;21.30;99.90;;;;;;5055910;28;19956;-65
2022/08/20 06:58:31;;;;;;;;;;;21.90;99.90;;;;;;5056228;28;19913;-65
2022/08/20 07:00:56;;;;;;;;;;;22.00;99.90;;;;;;5056154;28;19909;-64
2022/08/20 07:03:22;;;;;;;;;;;22.00;99.90;;;;;;5055865;28;19909;-64
2022/08/20 07:05:47;;;;;;;;;;;21.70;99.90;;;;;;5056060;28;19909;-65
2022/08/20 07:08:15;;;;;;;;;;;21.50;99.90;;;;;;5055721;28;20383;-65
2022/08/20 07:10:42;;;;;;;;;;;21.30;99.90;;;;;;5055983;28;19916;-65
2022/08/20 07:13:08;;;;;;;;;;;21.20;99.90;;;;;;5037816;28;20022;-65
2022/08/20 07:15:34;;;;;;;;;;;21.20;99.90;;;;;;5055717;28;20395;-65
2022/08/20 07:18:02;;;;;;;;;;;21.20;99.90;;;;;;5037695;28;19924;-64
2022/08/20 07:20:28;;;;;;;;;;;21.20;99.90;;;;;;5055590;28;19933;-65
2022/08/20 07:22:54;;;;;;;;;;;21.10;99.90;;;;;;5055691;28;19913;-65
2022/08/20 07:25:20;;;;;;;;;;;21.00;99.90;;;;;;5055659;28;19909;-64
2022/08/20 07:27:46;;;;;;;;;;;21.00;99.90;;;;;;5037513;28;19916;-64
2022/08/20 07:33:00;;;;;;;;;;;21.30;99.90;;;;;;5055107;28;19999;-65
2022/08/20 07:35:26;;;;;;;;;;;21.50;99.90;;;;;;5055655;28;19959;-64
2022/08/20 07:37:53;;;;;;;;;;;21.70;99.90;;;;;;5037716;28;20355;-64
2022/08/20 07:40:22;;;;;;;;;;;21.50;99.90;;;;;;5055206;28;19909;-65
2022/08/20 07:42:49;;;;;;;;;;;21.60;99.90;;;;;;5055187;28;19956;-65
2022/08/20 07:45:17;;;;;;;;;;;21.40;99.90;;;;;;5055051;28;19919;-64
2022/08/20 07:47:43;;;;;;;;;;;21.30;99.90;;;;;;5055258;28;19952;-64
2022/08/20 07:50:09;;;;;;;;;;;21.50;99.90;;;;;;5055248;28;19909;-64
2022/08/20 07:52:35;;;;;;;;;;;21.70;99.90;;;;;;5054894;28;19909;-65
2022/08/20 07:55:01;;;;;;;;;;;22.80;99.90;;;;;;5054793;28;19916;-65
2022/08/20 07:57:27;;;;;;;;;;;24.20;99.90;;;;;;5054305;28;19962;-64
2022/08/20 07:59:52;;;;;;;;;;;24.80;99.90;;;;;;5055046;28;19909;-64
2022/08/20 08:02:18;;;;;;;;;;;23.90;99.90;;;;;;5055005;28;19916;-64
2022/08/20 08:04:44;;;;;;;;;;;23.20;99.90;;;;;;5054985;28;19909;-65
2022/08/20 08:07:09;;;;;;;;;;;23.40;99.90;;;;;;5054917;28;19994;-64
2022/08/20 08:09:36;;;;;;;;;;;23.50;99.90;;;;;;5054591;28;19916;-64
2022/08/20 08:12:01;;;;;;;;;;;23.70;99.90;;;;;;5054810;28;20008;-64
2022/08/20 08:14:30;;;;;;;;;;;23.70;99.90;;;;;;5054790;28;19944;-64
2022/08/20 08:16:58;;;;;;;;;;;23.60;99.90;;;;;;5054232;28;20389;-64
2022/08/20 08:19:24;;;;;;;;;;;23.30;99.90;;;;;;5054694;28;20363;-64
2022/08/20 08:21:50;;;;;;;;;;;23.00;99.90;;;;;;5054300;28;19915;-64
2022/08/20 08:24:17;;;;;;;;;;;22.60;99.90;;;;;;5054627;28;20004;-64
2022/08/20 08:26:43;;;;;;;;;;;22.60;99.90;;;;;;5054536;28;19909;-64
2022/08/20 08:29:08;;;;;;;;;;;22.60;99.90;;;;;;5054460;28;19909;-65
2022/08/20 08:31:34;;;;;;;;;;;22.50;99.90;;;;;;5054153;28;19913;-64
2022/08/20 08:33:59;;;;;;;;;;;22.50;99.90;;;;;;5054456;28;19923;-64
2022/08/20 08:36:25;;;;;;;;;;;22.20;99.90;;;;;;5054004;28;19912;-64
2022/08/20 08:38:52;;;;;;;;;;;21.80;99.90;;;;;;5054326;28;19969;-64
2022/08/20 08:41:30;;;;;;;;;;;21.70;99.90;;;;;;5054269;28;19909;-64
2022/08/20 08:44:00;;;;;;;;;;;21.80;99.90;;;;;;5054199;28;19909;-65
2022/08/20 08:46:26;;;;;;;;;;;21.70;99.90;;;;;;5036357;28;19909;-64
2022/08/20 08:48:54;;;;;;;;;;;21.40;99.90;;;;;;5053864;28;20038;-65
2022/08/20 08:51:23;;;;;;;;;;;21.40;99.90;;;;;;5053817;28;19909;-64
2022/08/20 08:53:53;;;;;;;;;;;21.50;99.90;;;;;;5053834;28;19995;-64
2022/08/20 08:56:22;;;;;;;;;;;21.60;99.90;;;;;;5053938;28;19913;-65
2022/08/20 08:58:48;;;;;;;;;;;21.90;99.90;;;;;;5036219;28;19909;-65
2022/08/20 09:01:16;;;;;;;;;;;22.40;99.90;;;;;;5053959;28;19971;-65
2022/08/20 09:03:43;;;;;;;;;;;23.10;99.90;;;;;;5053931;28;19931;-65
2022/08/20 09:06:11;;;;;;;;;;;24.10;99.90;;;;;;5053902;28;20406;-65
2022/08/20 09:08:41;;;;;;;;;;;25.80;99.90;;;;;;5053586;28;20361;-65
2022/08/20 09:11:07;;;;;;;;;;;25.50;99.90;;;;;;5053615;28;19909;-65
2022/08/20 09:13:33;;;;;;;;;;;25.10;99.90;;;;;;5053811;28;19909;-65
2022/08/20 09:15:59;;;;;;;;;;;25.30;99.90;;;;;;5053192;28;19925;-65
2022/08/20 09:18:26;;;;;;;;;;;26.00;99.90;;;;;;5053048;28;21574;-65
2022/08/20 09:20:52;;;;;;;;;;;25.40;99.90;;;;;;5053763;28;20260;-65
2022/08/20 09:23:17;;;;;;;;;;;25.00;99.90;;;;;;5053481;28;19962;-65
2022/08/20 09:25:43;;;;;;;;;;;24.70;99.90;;;;;;5053444;28;19958;-65
2022/08/20 09:28:08;;;;;;;;;;;24.70;99.90;;;;;;5053677;28;20264;-65
2022/08/20 09:30:34;;;;;;;;;;;25.30;99.90;;;;;;5053378;28;19913;-65
2022/08/20 09:33:00;;;;;;;;;;;26.10;99.90;;;;;;5053695;28;19909;-65
2022/08/20 09:35:26;;;;;;;;;;;25.90;99.90;;;;;;5035856;28;19909;-65
2022/08/20 09:37:52;;;;;;;;;;;25.00;99.90;;;;;;5053501;28;19912;-65
2022/08/20 09:40:17;;;;;;;;;;;24.60;99.90;;;;;;5053515;28;19908;-65
2022/08/20 09:42:43;;;;;;;;;;;25.30;99.90;;;;;;5053544;28;20333;-65
2022/08/20 09:45:10;;;;;;;;;;;25.80;99.90;;;;;;5053310;28;19916;-65
2022/08/20 09:47:35;;;;;;;;;;;26.00;99.90;;;;;;5053418;28;19909;-66
2022/08/20 09:50:01;;;;;;;;;;;25.30;99.90;;;;;;5053219;28;20426;-65
2022/08/20 09:52:28;;;;;;;;;;;25.10;99.90;;;;;;5053456;28;19909;-65
2022/08/20 09:54:56;;;;;;;;;;;25.10;99.90;;;;;;5053123;28;19908;-65
2022/08/20 09:57:22;;;;;;;;;;;26.40;99.90;;;;;;5053044;28;20333;-65
2022/08/20 09:59:50;;;;;;;;;;;27.20;99.90;;;;;;5053350;28;19909;-66
2022/08/20 10:02:15;;;;;;;;;;;28.70;99.90;;;;;;5053359;28;20363;-66
2022/08/20 10:04:41;;;;;;;;;;;29.50;99.90;;;;;;5053037;28;19958;-65
2022/08/20 10:07:07;;;;;;;;;;;29.40;99.90;;;;;;5035586;28;19909;-65
2022/08/20 10:09:34;;;;;;;;;;;29.40;99.90;;;;;;5053087;28;19916;-66
2022/08/20 10:12:00;;;;;;;;;;;28.60;99.90;;;;;;5053028;28;19967;-65
2022/08/20 10:14:25;;;;;;;;;;;28.40;99.90;;;;;;5052978;28;20395;-65
2022/08/20 10:16:54;;;;;;;;;;;28.30;99.90;;;;;;5052686;28;19990;-65
2022/08/20 10:19:20;;;;;;;;;;;27.80;99.90;;;;;;5054256;28;19913;-65
2022/08/20 10:21:45;;;;;;;;;;;28.00;99.90;;;;;;5056654;28;20398;-65
2022/08/20 10:24:11;;;;;;;;;;;28.80;99.90;;;;;;5056601;28;19912;-65
2022/08/20 10:26:36;;;;;;;;;;;29.40;99.90;;;;;;5056571;28;19909;-65
2022/08/20 10:29:02;;;;;;;;;;;29.00;99.90;;;;;;5038705;28;19909;-65
2022/08/20 10:31:27;;;;;;;;;;;29.90;99.90;;;;;;5056440;28;20383;-65
2022/08/20 10:33:53;;;;;;;;;;;30.50;99.90;;;;;;5056667;28;19994;-65
2022/08/20 10:36:18;;;;;;;;;;;29.20;99.90;;;;;;5038509;28;20286;-65
2022/08/20 10:38:44;;;;;;;;;;;28.30;99.90;;;;;;5056393;28;19917;-65
2022/08/20 10:41:09;;;;;;;;;;;27.90;99.90;;;;;;5056531;28;19909;-65
2022/08/20 10:43:35;;;;;;;;;;;27.50;99.90;;;;;;5056213;28;19909;-65
2022/08/20 10:46:01;;;;;;;;;;;27.00;99.90;;;;;;5056454;28;19955;-65
2022/08/20 10:48:27;;;;;;;;;;;28.00;99.90;;;;;;5056376;28;19960;-65
2022/08/20 10:50:52;;;;;;;;;;;27.70;99.90;;;;;;5038653;28;19916;-65
2022/08/20 10:53:18;;;;;;;;;;;27.30;99.90;;;;;;5056115;28;19909;-65
2022/08/20 10:55:43;;;;;;;;;;;27.70;99.90;;;;;;5038280;28;19916;-65
2022/08/20 10:58:09;;;;;;;;;;;27.90;99.90;;;;;;5055841;28;19912;-65
2022/08/20 11:00:48;;;;;;;;;;;28.10;99.90;;;;;;5056172;28;20026;-66
2022/08/20 11:03:13;;;;;;;;;;;28.00;99.90;;;;;;5056118;28;19915;-65
2022/08/20 11:05:39;;;;;;;;;;;27.70;99.90;;;;;;5055868;28;20346;-65
2022/08/20 11:08:04;;;;;;;;;;;28.10;99.90;;;;;;5055744;28;19912;-66
2022/08/20 11:10:32;;;;;;;;;;;28.20;99.90;;;;;;5056005;28;19908;-65
2022/08/20 11:12:57;;;;;;;;;;;27.40;99.90;;;;;;5055949;28;19915;-65
2022/08/20 11:15:23;;;;;;;;;;;27.00;99.90;;;;;;5055456;28;19921;-65
2022/08/20 11:17:48;;;;;;;;;;;26.50;99.90;;;;;;5055774;28;19919;-65
2022/08/20 11:20:16;;;;;;;;;;;26.10;99.90;;;;;;5055822;28;19913;-65
2022/08/20 11:22:42;;;;;;;;;;;26.50;99.90;;;;;;5055518;28;20371;-65
2022/08/20 11:25:08;;;;;;;;;;;27.10;99.90;;;;;;5055431;28;19916;-65
2022/08/20 11:27:35;;;;;;;;;;;26.90;99.90;;;;;;5055715;28;19909;-65
2022/08/20 11:30:01;;;;;;;;;;;26.40;99.90;;;;;;5055420;28;20026;-65
2022/08/20 11:32:27;;;;;;;;;;;25.70;99.90;;;;;;5055312;28;19916;-65
2022/08/20 11:34:52;;;;;;;;;;;25.60;99.90;;;;;;5055578;28;19909;-65
2022/08/20 11:37:19;;;;;;;;;;;25.50;99.90;;;;;;5037329;28;19912;-65
2022/08/20 11:39:44;;;;;;;;;;;25.20;99.90;;;;;;5055450;28;20086;-65
2022/08/20 11:42:10;;;;;;;;;;;25.10;99.90;;;;;;5055090;28;19948;-65
2022/08/20 11:44:35;;;;;;;;;;;24.70;99.90;;;;;;5055046;28;19909;-66
2022/08/20 11:47:02;;;;;;;;;;;24.50;99.90;;;;;;5055326;28;19909;-65
2022/08/20 11:49:29;;;;;;;;;;;24.30;99.90;;;;;;5055232;28;19909;-65
2022/08/20 11:51:55;;;;;;;;;;;24.30;99.90;;;;;;5055204;28;20290;-65
2022/08/20 11:54:20;;;;;;;;;;;24.20;99.90;;;;;;5037079;28;19915;-65
2022/08/20 11:56:46;;;;;;;;;;;24.30;99.90;;;;;;5054794;28;19912;-65
2022/08/20 11:59:12;;;;;;;;;;;24.30;99.90;;;;;;5055109;28;19947;-65
2022/08/20 12:01:37;;;;;;;;;;;24.10;99.90;;;;;;5054723;28;20359;-65
2022/08/20 12:04:03;;;;;;;;;;;23.90;99.90;;;;;;5055015;28;19909;-65
2022/08/20 12:06:28;;;;;;;;;;;23.70;99.90;;;;;;5054939;28;20414;-65
2022/08/20 12:08:54;;;;;;;;;;;23.40;99.90;;;;;;5054660;28;19955;-65
2022/08/20 12:11:19;;;;;;;;;;;23.50;99.90;;;;;;5054528;28;19919;-65
2022/08/20 12:13:45;;;;;;;;;;;23.30;99.90;;;;;;5036622;28;19912;-65
2022/08/20 12:16:10;;;;;;;;;;;23.10;99.90;;;;;;5054268;28;19921;-65
2022/08/20 12:18:36;;;;;;;;;;;23.00;99.90;;;;;;5054516;28;20283;-66
2022/08/20 12:21:01;;;;;;;;;;;23.40;99.90;;;;;;5054703;28;19912;-65
2022/08/20 12:23:27;;;;;;;;;;;23.70;99.90;;;;;;5054325;28;19909;-65
2022/08/20 12:25:52;;;;;;;;;;;24.20;99.90;;;;;;5054601;28;19916;-65
2022/08/20 12:28:18;;;;;;;;;;;24.40;99.90;;;;;;5054616;28;19932;-65
2022/08/20 12:30:43;;;;;;;;;;;24.90;99.90;;;;;;5054255;28;19932;-65
2022/08/20 12:33:09;;;;;;;;;;;25.00;99.90;;;;;;5054203;28;20302;-65
2022/08/20 12:35:35;;;;;;;;;;;25.50;99.90;;;;;;5036344;28;19913;-67
2022/08/20 12:38:03;;;;;;;;;;;25.60;99.90;;;;;;5054403;28;19917;-65
2022/08/20 12:40:29;;;;;;;;;;;25.60;99.90;;;;;;5036372;28;19908;-65
2022/08/20 12:42:55;;;;;;;;;;;25.20;99.90;;;;;;5053927;28;20395;-65
2022/08/20 12:45:20;;;;;;;;;;;25.00;99.90;;;;;;5054271;28;19916;-65
2022/08/20 12:47:46;;;;;;;;;;;24.80;99.90;;;;;;5054077;28;19909;-65
2022/08/20 12:50:13;;;;;;;;;;;24.80;99.90;;;;;;5054134;28;19909;-65
2022/08/20 12:52:39;;;;;;;;;;;24.80;99.90;;;;;;5054112;28;19909;-65
2022/08/20 12:55:05;;;;;;;;;;;24.90;99.90;;;;;;5054119;28;19993;-65
2022/08/20 12:57:33;;;;;;;;;;;25.30;99.90;;;;;;5053745;28;20011;-65
2022/08/20 13:00:00;;;;;;;;;;;25.30;99.90;;;;;;5054023;28;19964;-65
2022/08/20 13:02:25;;;;;;;;;;;25.00;99.90;;;;;;5053669;28;19947;-65
2022/08/20 13:04:51;;;;;;;;;;;25.30;99.90;;;;;;5053954;28;20022;-65
2022/08/20 13:07:16;;;;;;;;;;;25.70;99.90;;;;;;5053874;28;19915;-65
2022/08/20 13:09:42;;;;;;;;;;;25.40;99.90;;;;;;5053654;28;19916;-65
2022/08/20 13:12:08;;;;;;;;;;;25.60;99.90;;;;;;5053633;28;20423;-65
2022/08/20 13:14:34;;;;;;;;;;;25.30;99.90;;;;;;5053776;28;19909;-65
2022/08/20 13:17:00;;;;;;;;;;;24.70;99.90;;;;;;5053203;28;20298;-65
2022/08/20 13:19:26;;;;;;;;;;;24.80;99.90;;;;;;5035521;28;19916;-65
2022/08/20 13:21:52;;;;;;;;;;;25.00;99.90;;;;;;5053758;28;19916;-65
2022/08/20 13:24:18;;;;;;;;;;;24.80;99.90;;;;;;5053637;28;20286;-65
2022/08/20 13:26:43;;;;;;;;;;;24.90;99.90;;;;;;5053616;28;20282;-65
2022/08/20 13:29:09;;;;;;;;;;;24.70;99.90;;;;;;5053599;28;19916;-65
2022/08/20 13:31:34;;;;;;;;;;;24.80;99.90;;;;;;5053630;28;19920;-65
2022/08/20 13:34:00;;;;;;;;;;;25.10;99.90;;;;;;5053160;28;19948;-65
2022/08/20 13:36:25;;;;;;;;;;;25.30;99.90;;;;;;5053421;28;20010;-65
2022/08/20 13:38:51;;;;;;;;;;;25.00;99.90;;;;;;5053517;28;20260;-65
2022/08/20 13:41:17;;;;;;;;;;;25.00;99.90;;;;;;5053442;28;20415;-65
2022/08/20 13:43:42;;;;;;;;;;;24.60;99.90;;;;;;5035466;28;19916;-65
2022/08/20 13:46:08;;;;;;;;;;;24.50;99.90;;;;;;5053424;28;19909;-65
2022/08/20 13:48:33;;;;;;;;;;;24.20;99.90;;;;;;5053391;28;19909;-65
2022/08/20 13:50:59;;;;;;;;;;;24.10;99.90;;;;;;5035354;28;20371;-65
2022/08/20 13:53:25;;;;;;;;;;;24.20;99.90;;;;;;5054358;28;19996;-65
2022/08/20 13:55:50;;;;;;;;;;;24.10;99.90;;;;;;5057148;28;19948;-65
2022/08/20 13:58:16;;;;;;;;;;;24.00;99.90;;;;;;5057237;28;19963;-65
2022/08/20 14:00:43;;;;;;;;;;;24.00;99.90;;;;;;5056942;28;19909;-65
2022/08/20 14:03:08;;;;;;;;;;;24.00;99.90;;;;;;5057301;28;19939;-65
2022/08/20 14:05:34;;;;;;;;;;;23.90;99.90;;;;;;5056951;28;20086;-65
2022/08/20 14:08:10;;;;;;;;;;;23.80;99.90;;;;;;5056917;28;19909;-65
2022/08/20 14:10:36;;;;;;;;;;;23.70;99.90;;;;;;5057049;28;20306;-65
2022/08/20 14:13:02;;;;;;;;;;;23.90;99.90;;;;;;5056822;28;19915;-65
2022/08/20 14:15:28;;;;;;;;;;;24.00;99.90;;;;;;5056556;28;19920;-65